createdAt,value
2019-02-11T00:02:13.715Z,106.60
2019-02-11T00:05:17.934Z,96.73
2019-02-11T00:08:21.983Z,106.00
2019-02-11T00:11:26.102Z,104.00
2019-02-11T00:14:30.307Z,97.97
2019-02-11T00:17:34.467Z,107.60
2019-02-11T00:20:38.611Z,96.40
2019-02-11T00:23:42.688Z,105.70
2019-02-11T00:26:46.811Z,109.97
2019-02-11T00:29:50.996Z,108.80
2019-02-11T00:32:55.317Z,102.97
2019-02-11T00:35:59.580Z,101.77
2019-02-11T00:39:04.521Z,99.80
2019-02-11T00:42:08.678Z,98.53
2019-02-11T00:45:12.875Z,95.90
2019-02-11T00:48:17.108Z,106.30
2019-02-11T00:51:21.230Z,101.90
2019-02-11T00:54:25.394Z,104.73
2019-02-11T00:57:29.529Z,110.10
2019-02-11T01:00:33.603Z,101.00
2019-02-11T01:03:37.736Z,104.10
2019-02-11T01:06:42.888Z,102.27
2019-02-11T01:09:47.072Z,97.07
2019-02-11T01:12:51.172Z,100.20
2019-02-11T01:15:55.375Z,91.37
2019-02-11T01:18:59.543Z,96.50
2019-02-11T01:22:03.841Z,89.73
2019-02-11T01:25:08.268Z,92.07
2019-02-11T01:28:12.379Z,88.27
2019-02-11T01:31:16.472Z,85.50
2019-02-11T01:34:20.672Z,83.30
2019-02-11T01:37:24.797Z,78.03
2019-02-11T01:40:28.944Z,78.40
2019-02-11T01:43:36.147Z,71.13
2019-02-11T01:46:38.975Z,76.80
2019-02-11T01:49:43.137Z,67.50
2019-02-11T01:52:47.373Z,67.37
2019-02-11T01:55:51.472Z,68.60
2019-02-11T01:58:55.584Z,63.90
2019-02-11T02:01:59.663Z,58.07
2019-02-11T02:05:03.780Z,59.30
2019-02-11T02:08:07.903Z,49.20
2019-02-11T02:11:12.011Z,56.97
2019-02-11T02:14:16.181Z,47.13
2019-02-11T02:17:20.300Z,38.83
2019-02-11T02:20:24.379Z,32.50
2019-02-11T02:23:28.488Z,38.00
2019-02-11T02:26:32.566Z,32.67
2019-02-11T02:29:36.678Z,32.50
2019-02-11T02:32:40.756Z,28.50
2019-02-11T02:35:44.925Z,23.00
2019-02-11T02:38:49.136Z,27.60
2019-02-11T02:41:53.341Z,26.07
2019-02-11T02:44:57.511Z,23.13
2019-02-11T02:48:01.710Z,22.17
2019-02-11T02:51:05.890Z,23.17
2019-02-11T02:54:12.069Z,20.93
2019-02-11T02:57:15.950Z,23.27
2019-02-11T03:00:20.048Z,20.93
2019-02-11T03:03:24.132Z,18.73
2019-02-11T03:06:28.318Z,21.00
2019-02-11T03:09:32.433Z,20.53
2019-02-11T03:12:36.643Z,18.03
2019-02-11T03:15:40.731Z,17.73
2019-02-11T03:18:44.870Z,18.27
2019-02-11T03:21:49.017Z,17.90
2019-02-11T03:24:53.134Z,15.00
2019-02-11T03:27:57.228Z,15.80
2019-02-11T03:31:01.403Z,15.20
2019-02-11T03:34:05.547Z,14.63
2019-02-11T03:37:09.725Z,16.23
2019-02-11T03:40:13.992Z,14.93
2019-02-11T03:43:18.400Z,15.10
2019-02-11T03:46:22.490Z,15.27
2019-02-11T03:49:26.684Z,15.00
2019-02-11T03:52:30.793Z,13.63
2019-02-11T03:55:34.957Z,17.20
2019-02-11T03:58:39.046Z,14.57
2019-02-11T04:01:43.234Z,14.60
2019-02-11T04:04:47.391Z,14.90
2019-02-11T04:07:51.520Z,17.97
2019-02-11T04:10:55.651Z,19.23
2019-02-11T04:13:59.855Z,27.87
2019-02-11T04:17:03.961Z,23.20
2019-02-11T04:20:08.161Z,27.67
2019-02-11T04:23:12.248Z,26.60
2019-02-11T04:26:16.443Z,29.00
2019-02-11T04:29:20.543Z,27.60
2019-02-11T04:32:24.724Z,25.50
2019-02-11T04:35:28.798Z,25.50
2019-02-11T04:38:32.914Z,22.83
2019-02-11T04:41:37.125Z,23.97
2019-02-11T04:44:41.510Z,20.10
2019-02-11T04:47:45.694Z,17.63
2019-02-11T04:50:49.903Z,16.97
2019-02-11T04:53:53.969Z,16.33
2019-02-11T04:56:59.837Z,13.53
2019-02-11T05:00:04.344Z,16.27
2019-02-11T05:03:08.450Z,13.83
2019-02-11T05:06:12.549Z,14.47
2019-02-11T05:09:16.723Z,12.67
2019-02-11T05:12:20.811Z,13.43
2019-02-11T05:15:25.033Z,13.50
2019-02-11T05:18:29.189Z,12.73
2019-02-11T05:21:33.299Z,11.67
2019-02-11T05:24:37.351Z,13.23
2019-02-11T05:27:41.548Z,16.07
2019-02-11T05:30:45.696Z,13.03
2019-02-11T05:33:49.810Z,12.60
2019-02-11T05:36:53.977Z,13.33
2019-02-11T05:39:58.159Z,13.97
2019-02-11T05:43:02.308Z,12.70
2019-02-11T05:46:07.033Z,14.77
2019-02-11T05:49:11.175Z,15.37
2019-02-11T05:52:15.365Z,15.30
2019-02-11T05:55:19.440Z,14.73
2019-02-11T05:58:23.564Z,14.03
2019-02-11T06:01:27.639Z,14.97
2019-02-11T06:04:31.745Z,14.63
2019-02-11T06:07:35.921Z,14.00
2019-02-11T06:10:40.131Z,14.93
2019-02-11T06:13:44.228Z,15.27
2019-02-11T06:16:48.555Z,14.97
2019-02-11T06:19:52.649Z,15.43
2019-02-11T06:22:56.831Z,19.60
2019-02-11T06:26:00.937Z,14.00
2019-02-11T06:29:05.106Z,13.03
2019-02-11T06:32:09.201Z,14.13
2019-02-11T06:35:13.304Z,16.27
2019-02-11T06:38:17.395Z,15.10
2019-02-11T06:41:21.511Z,16.23
2019-02-11T06:44:25.614Z,16.27
2019-02-11T06:47:30.407Z,16.30
2019-02-11T06:50:34.500Z,13.17
2019-02-11T06:53:38.609Z,16.27
2019-02-11T06:56:42.621Z,10.30
2019-02-11T06:59:46.730Z,15.93
2019-02-11T07:02:50.749Z,10.80
2019-02-11T07:05:54.854Z,17.83
2019-02-11T07:08:58.979Z,14.03
2019-02-11T07:12:03.126Z,13.37
2019-02-11T07:15:09.215Z,15.13
2019-02-11T07:18:13.329Z,12.07
2019-02-11T07:21:17.492Z,13.63
2019-02-11T07:24:21.539Z,15.63
2019-02-11T07:27:25.648Z,12.07
2019-02-11T07:30:29.759Z,11.67
2019-02-11T07:34:03.976Z,10.93
2019-02-11T07:37:08.097Z,10.33
2019-02-11T07:40:12.262Z,11.67
2019-02-11T07:43:33.641Z,11.83
2019-02-11T07:46:51.188Z,11.37
2019-02-11T07:49:55.414Z,10.17
2019-02-11T07:53:00.432Z,9.77
2019-02-11T07:56:04.639Z,11.37
2019-02-11T07:59:08.725Z,12.43
2019-02-11T08:02:12.862Z,10.93
2019-02-11T08:05:17.094Z,10.80
2019-02-11T08:08:21.310Z,12.27
2019-02-11T08:11:25.457Z,11.20
2019-02-11T08:14:29.730Z,14.90
2019-02-11T08:17:33.836Z,15.73
2019-02-11T08:20:38.931Z,12.23
2019-02-11T08:23:43.104Z,13.60
2019-02-11T08:26:47.239Z,11.77
2019-02-11T08:29:51.321Z,13.07
2019-02-11T08:32:55.436Z,13.23
2019-02-11T08:35:59.520Z,10.50
2019-02-11T08:39:05.467Z,12.83
2019-02-11T08:42:09.551Z,9.90
2019-02-11T08:45:13.955Z,10.00
2019-02-11T08:48:18.132Z,11.30
2019-02-11T08:51:22.615Z,8.70
2019-02-11T08:54:26.767Z,12.27
2019-02-11T08:57:30.895Z,14.00
2019-02-11T09:00:34.979Z,9.20
2019-02-11T09:03:39.211Z,8.67
2019-02-11T09:06:43.491Z,10.13
2019-02-11T09:09:47.608Z,11.97
2019-02-11T09:12:51.761Z,18.20
2019-02-11T09:15:55.958Z,13.90
2019-02-11T09:19:00.037Z,16.03
2019-02-11T09:22:07.515Z,14.00
2019-02-11T09:25:10.459Z,11.33
2019-02-11T09:28:14.591Z,11.67
2019-02-11T09:31:18.744Z,10.40
2019-02-11T09:34:22.885Z,12.63
2019-02-11T09:37:27.029Z,11.67
2019-02-11T09:40:31.152Z,11.13
2019-02-11T09:43:35.260Z,12.90
2019-02-11T09:46:39.378Z,10.93
2019-02-11T09:49:43.558Z,8.40
2019-02-11T09:52:48.653Z,10.07
2019-02-11T09:55:52.840Z,8.83
2019-02-11T09:58:56.991Z,10.70
2019-02-11T10:02:01.149Z,10.80
2019-02-11T10:05:06.248Z,9.47
2019-02-11T10:08:10.319Z,7.60
2019-02-11T10:11:14.563Z,9.80
2019-02-11T10:14:18.789Z,12.33
2019-02-11T10:17:29.693Z,11.10
2019-02-11T10:20:28.747Z,12.93
2019-02-11T10:23:32.986Z,12.00
2019-02-11T10:26:37.144Z,10.47
2019-02-11T10:29:41.320Z,9.40
2019-02-11T10:32:45.574Z,9.53
2019-02-11T10:35:49.897Z,9.53
2019-02-11T10:38:54.103Z,10.90
2019-02-11T10:41:58.350Z,9.60
2019-02-11T10:45:02.648Z,9.77
2019-02-11T10:48:06.981Z,9.10
2019-02-11T10:51:11.141Z,10.90
2019-02-11T10:54:15.309Z,9.13
2019-02-11T10:57:19.471Z,9.57
2019-02-11T11:00:23.771Z,11.50
2019-02-11T11:03:28.051Z,10.17
2019-02-11T11:06:32.240Z,10.17
2019-02-11T11:09:36.391Z,10.70
2019-02-11T11:12:40.664Z,7.33
2019-02-11T11:15:44.869Z,8.27
2019-02-11T11:18:49.056Z,7.10
2019-02-11T11:21:53.140Z,7.43
2019-02-11T11:24:58.215Z,7.50
2019-02-11T11:28:03.189Z,5.87
2019-02-11T11:31:10.354Z,7.07
2019-02-11T11:34:14.512Z,8.70
2019-02-11T11:37:23.208Z,5.53
2019-02-11T11:40:29.394Z,5.33
2019-02-11T11:43:33.394Z,6.90
2019-02-11T11:46:45.753Z,7.87
2019-02-11T11:49:43.299Z,6.67
2019-02-11T11:52:47.457Z,8.07
2019-02-11T11:55:52.136Z,6.03
2019-02-11T11:58:56.331Z,7.23
2019-02-11T12:02:00.570Z,5.83
2019-02-11T12:05:04.968Z,5.93
2019-02-11T12:08:09.193Z,8.07
2019-02-11T12:11:13.417Z,6.83
2019-02-11T12:14:17.655Z,6.43
2019-02-11T12:17:21.825Z,8.27
2019-02-11T12:20:26.140Z,5.87
2019-02-11T12:23:30.232Z,9.17
2019-02-11T12:26:34.638Z,5.40
2019-02-11T12:29:38.800Z,6.97
2019-02-11T12:32:42.925Z,8.07
2019-02-11T12:35:47.112Z,10.10
2019-02-11T12:38:51.255Z,8.13
2019-02-11T12:41:55.457Z,6.67
2019-02-11T12:44:59.658Z,6.73
2019-02-11T12:48:15.372Z,7.93
2019-02-11T12:51:19.559Z,14.70
2019-02-11T12:54:23.746Z,8.30
2019-02-11T12:57:27.978Z,10.90
2019-02-11T13:00:32.132Z,10.20
2019-02-11T13:03:36.343Z,10.33
2019-02-11T13:06:43.425Z,9.03
2019-02-11T13:09:47.651Z,12.07
2019-02-11T13:12:51.868Z,10.30
2019-02-11T13:16:01.904Z,14.67
2019-02-11T13:19:03.841Z,13.03
2019-02-11T13:22:08.072Z,14.60
2019-02-11T13:25:13.492Z,12.87
2019-02-11T13:28:17.780Z,12.50
2019-02-11T13:31:22.090Z,13.80
2019-02-11T13:34:26.320Z,14.33
2019-02-11T13:37:30.493Z,11.47
2019-02-11T13:40:34.702Z,11.73
2019-02-11T13:43:38.902Z,13.77
2019-02-11T13:46:43.109Z,16.90
2019-02-11T13:49:47.517Z,16.83
2019-02-11T13:52:52.446Z,15.93
2019-02-11T13:55:56.760Z,19.57
2019-02-11T13:59:01.647Z,19.47
2019-02-11T14:02:05.817Z,14.93
2019-02-11T14:05:10.043Z,15.73
2019-02-11T14:08:14.199Z,16.70
2019-02-11T14:11:18.618Z,25.03
2019-02-11T14:14:28.633Z,17.57
2019-02-11T14:17:32.835Z,18.43
2019-02-11T14:20:37.090Z,23.13
2019-02-11T14:23:41.321Z,18.20
2019-02-11T14:26:45.512Z,19.43
2019-02-11T14:29:49.710Z,21.10
2019-02-11T14:32:53.844Z,22.80
2019-02-11T14:35:58.076Z,19.40
2019-02-11T14:39:07.435Z,19.37
2019-02-11T14:42:15.029Z,18.90
2019-02-11T14:45:19.202Z,24.07
2019-02-11T14:48:28.226Z,18.97
2019-02-11T14:51:30.936Z,22.03
2019-02-11T14:54:35.079Z,22.47
2019-02-11T14:57:39.331Z,17.83
2019-02-11T15:00:44.391Z,19.97
2019-02-11T15:03:48.945Z,16.50
2019-02-11T15:06:53.135Z,20.60
2019-02-11T15:09:57.315Z,19.57
2019-02-11T15:13:04.532Z,19.23
2019-02-11T15:16:08.938Z,21.70
2019-02-11T15:19:13.174Z,18.60
2019-02-11T15:22:17.361Z,20.83
2019-02-11T15:25:21.570Z,22.03
2019-02-11T15:28:25.762Z,20.90
2019-02-11T15:31:30.019Z,20.63
2019-02-11T15:34:34.183Z,22.93
2019-02-11T15:37:38.380Z,22.03
2019-02-11T15:40:42.536Z,26.47
2019-02-11T15:43:46.656Z,30.73
2019-02-11T15:46:50.825Z,29.90
2019-02-11T15:49:55.023Z,33.57
2019-02-11T15:52:59.216Z,30.73
2019-02-11T15:56:07.948Z,33.57
2019-02-11T15:59:09.410Z,33.17
2019-02-11T16:02:14.158Z,34.43
2019-02-11T16:05:18.354Z,31.97
2019-02-11T16:08:22.818Z,31.00
2019-02-11T16:11:27.050Z,30.23
2019-02-11T16:14:31.533Z,28.53
2019-02-11T16:17:36.271Z,27.00
2019-02-11T16:20:40.486Z,28.10
2019-02-11T16:23:44.654Z,25.17
2019-02-11T16:26:48.867Z,26.80
2019-02-11T16:29:53.052Z,19.20
2019-02-11T16:32:57.176Z,23.40
2019-02-11T16:36:01.296Z,22.83
2019-02-11T16:39:05.831Z,25.50
2019-02-11T16:42:10.321Z,24.30
2019-02-11T16:45:14.600Z,22.67
2019-02-11T16:48:19.101Z,27.23
2019-02-11T16:51:23.299Z,22.03
2019-02-11T16:54:27.518Z,44.87
2019-02-11T16:57:32.119Z,46.47
2019-02-11T17:00:36.665Z,54.47
2019-02-11T17:03:42.202Z,53.67
2019-02-11T17:06:46.407Z,53.77
2019-02-11T17:09:50.616Z,40.43
2019-02-11T17:12:54.973Z,70.97
2019-02-11T17:15:59.286Z,67.83
2019-02-11T17:19:09.175Z,62.93
2019-02-11T17:22:09.401Z,62.93
2019-02-11T17:25:13.538Z,56.10
2019-02-11T17:28:17.854Z,51.90
2019-02-11T17:31:22.052Z,56.90
2019-02-11T17:34:27.440Z,37.27
2019-02-11T17:37:31.755Z,40.53
2019-02-11T17:40:36.014Z,38.97
2019-02-11T17:43:40.238Z,39.53
2019-02-11T17:46:44.908Z,36.23
2019-02-11T17:49:49.326Z,35.20
2019-02-11T17:52:54.182Z,34.80
2019-02-11T17:55:58.350Z,39.23
2019-02-11T17:59:02.724Z,35.63
2019-02-11T18:02:10.232Z,31.90
2019-02-11T18:05:15.315Z,33.40
2019-02-11T18:08:19.489Z,29.57
2019-02-11T18:11:23.722Z,34.47
2019-02-11T18:14:27.968Z,30.60
2019-02-11T18:17:32.225Z,28.73
2019-02-11T18:20:36.526Z,26.33
2019-02-11T18:23:40.743Z,27.97
2019-02-11T18:26:44.921Z,28.27
2019-02-11T18:29:49.076Z,24.30
2019-02-11T18:32:53.264Z,22.77
2019-02-11T18:35:57.952Z,21.93
2019-02-11T18:39:02.101Z,23.83
2019-02-11T18:42:06.629Z,24.73
2019-02-11T18:45:12.392Z,22.43
2019-02-11T18:48:16.562Z,20.47
2019-02-11T18:51:21.623Z,23.17
2019-02-11T18:54:25.834Z,22.80
2019-02-11T18:57:30.329Z,24.63
2019-02-11T19:00:35.881Z,28.33
2019-02-11T19:03:40.075Z,23.27
2019-02-11T19:06:44.605Z,24.70
2019-02-11T19:09:48.830Z,26.57
2019-02-11T19:12:52.976Z,25.13
2019-02-11T19:15:57.190Z,34.00
2019-02-11T19:19:01.397Z,29.73
2019-02-11T19:22:05.570Z,30.93
2019-02-11T19:25:10.087Z,29.97
2019-02-11T19:28:14.190Z,29.30
2019-02-11T19:31:18.317Z,30.13
2019-02-11T19:34:22.506Z,34.43
2019-02-11T19:37:26.717Z,32.50
2019-02-11T19:40:32.041Z,37.43
2019-02-11T19:43:36.203Z,34.67
2019-02-11T19:46:40.405Z,33.60
2019-02-11T19:49:51.822Z,45.33
2019-02-11T19:52:50.577Z,51.23
2019-02-11T19:55:54.803Z,50.83
2019-02-11T19:58:58.982Z,78.20
2019-02-11T20:02:03.266Z,65.30
2019-02-11T20:05:08.345Z,64.93
2019-02-11T20:08:12.997Z,67.70
2019-02-11T20:11:17.126Z,55.53
2019-02-11T20:14:24.140Z,56.80
2019-02-11T20:17:28.346Z,48.00
2019-02-11T20:20:32.607Z,54.77
2019-02-11T20:23:36.856Z,50.53
2019-02-11T20:26:41.278Z,43.57
2019-02-11T20:29:47.205Z,44.13
2019-02-11T20:32:51.524Z,40.60
2019-02-11T20:35:56.065Z,35.97
2019-02-11T20:39:00.746Z,36.07
2019-02-11T20:42:04.959Z,46.57
2019-02-11T20:45:12.189Z,52.60
2019-02-11T20:48:16.364Z,65.10
2019-02-11T20:51:20.689Z,75.13
2019-02-11T20:54:25.211Z,88.50
2019-02-11T20:57:29.624Z,67.27
2019-02-11T21:00:33.772Z,66.23
2019-02-11T21:03:37.967Z,55.90
2019-02-11T21:06:42.185Z,59.70
2019-02-11T21:09:46.493Z,53.90
2019-02-11T21:12:51.165Z,63.47
2019-02-11T21:15:55.408Z,51.77
2019-02-11T21:18:59.549Z,55.77
2019-02-11T21:22:03.754Z,51.10
2019-02-11T21:25:08.421Z,51.77
2019-02-11T21:28:12.715Z,44.87
2019-02-11T21:31:16.908Z,84.83
2019-02-11T21:34:21.139Z,62.77
2019-02-11T21:37:25.304Z,51.60
2019-02-11T21:40:29.465Z,72.30
2019-02-11T21:43:33.661Z,93.43
2019-02-11T21:46:37.796Z,78.07
2019-02-11T21:49:41.899Z,86.40
2019-02-11T21:52:46.116Z,83.90
2019-02-11T21:55:50.249Z,91.13
2019-02-11T21:58:54.415Z,65.43
2019-02-11T22:01:58.586Z,66.17
2019-02-11T22:05:02.777Z,66.20
2019-02-11T22:08:07.015Z,59.80
2019-02-11T22:11:11.299Z,59.10
2019-02-11T22:14:15.482Z,108.67
2019-02-11T22:17:19.696Z,90.57
2019-02-11T22:20:23.917Z,129.20
2019-02-11T22:23:28.131Z,88.77
2019-02-11T22:26:32.360Z,109.03
2019-02-11T22:29:36.585Z,102.83
2019-02-11T22:32:40.771Z,109.67
2019-02-11T22:35:46.193Z,112.70
2019-02-11T22:38:50.399Z,104.43
2019-02-11T22:41:54.968Z,117.67
2019-02-11T22:44:59.072Z,109.87
2019-02-11T22:48:03.197Z,130.20
2019-02-11T22:51:07.405Z,133.40
2019-02-11T22:54:11.600Z,120.73
2019-02-11T22:57:15.854Z,117.90
2019-02-11T23:00:49.707Z,130.40
2019-02-11T23:03:53.798Z,106.63
2019-02-11T23:06:57.920Z,119.07
2019-02-11T23:10:02.171Z,92.60
2019-02-11T23:13:06.378Z,119.40
2019-02-11T23:16:10.573Z,100.67
2019-02-11T23:19:14.762Z,95.77
2019-02-11T23:22:18.898Z,70.30
2019-02-11T23:25:23.090Z,80.43
2019-02-11T23:28:27.323Z,70.70
2019-02-11T23:31:31.536Z,66.90
2019-02-11T23:34:35.652Z,75.70
2019-02-11T23:37:39.754Z,64.27
2019-02-11T23:40:43.851Z,57.50
2019-02-11T23:43:48.053Z,51.43
2019-02-11T23:46:52.220Z,47.53
2019-02-11T23:49:56.369Z,46.83
2019-02-11T23:53:00.561Z,53.80
2019-02-11T23:56:04.789Z,33.67
2019-02-11T23:59:09.011Z,40.07
